ฮานอย, Viet Nam

05:41 PM ICT วัน กุมภาพันธ์ 10, 2016 (GMT +0700)
Noibai International | | Change Station
CLOSE
Current Station
Airport
Location: Ha Noi,
Elevation: 36 ft
Nearby Weather Stations

Elev 36 ft 21.22 °N, 105.81 °E | Updated 11 minutes ago

Scattered Clouds
มีเมฆคลุมเป็นบางส่วน
70 ฟาเรนไฮน์
Feels Like 70 ฟาเรนไฮน์
N
9
ลม ความผันแปร ลม from ทางทิศตะวันออกและทิศตะวันออกเฉียงใต้

วันนี้
High -- | Low -- ฟาเรนไฮน์
--% Chance of Precip.
Yesterday
High -- | Low -- ฟาเรนไฮน์
Precip. -- นิ้ว
ความดัน 29.86 นิ้ว
ทัศนวิสัย 6.2 ไมล์
เมฆ มีเมฆคลุมเป็นบางส่วน 3000 ft
อุณหภูมิที่อากาศอาจจับตัวเป็นหยาดน้ำค้าง 61 ฟาเรนไฮน์
ความชื้น 73%
Rainfall 0.00 นิ้ว
Snow Depth Not available.
6:30 AM 5:51 PM
เดือนเสี้ยว, 5% visible
METAR VVNB 101030Z 11008KT 9999 SCT030 21/16 Q1011 NOSIG
ความดัน 29.86 นิ้ว
ทัศนวิสัย 6.2 ไมล์
เมฆ มีเมฆคลุมเป็นบางส่วน 3000 ft
อุณหภูมิที่อากาศอาจจับตัวเป็นหยาดน้ำค้าง 61 ฟาเรนไฮน์
ความชื้น 73%
Rainfall 0.00 นิ้ว
Snow Depth Not available.
6:30 AM 5:51 PM
เดือนเสี้ยว, 5% visible
METAR VVNB 101030Z 11008KT 9999 SCT030 21/16 Q1011 NOSIG

10-Day Weather Forecast

No radar image for this location.
×

Almanac

ดาราศาสตร์

Feb. 10, 2016 Rise Set
Actual Time
Civil Twilight
Nautical Twilight
Astronomical Twilight
Moon
Length Of Visible Light
ความยาวของวัน
Tomorrow will be .
, % of the Moon is Illuminated

Today's Extremes

Country Highs Country Lows

Community

WunderPhotos

Upload Photos

1,891,830 photos uploaded!

WunderBlog® & News

Nearby

Air Quality

  Air Quality AQ Index Pollutant
Not available.

Snow Depth

Station Depth Elevation

Earthquake Activity

City Distance Mag. Time & Date
Minimum magnitude displayed is 2.5.

Coastal Water Temperatures

สถานที่ อุณหภูมิ

Stations

Nearby Weather Stations

Station Location Temp ลมหนาว อุณหภูมิที่อากาศอาจจับตัวเป็นหยาดน้ำค้าง ความชื้น ลม Precip. Elev ปรับปรุงล่าสุด Type